sensor_id;sensor_type;location;lat;lon;timestamp;P1;durP1;ratioP1;P2;durP2;ratioP2
7817;SDS011;3954;52.624;9.212;2023-03-30T00:00:47;11.67;;;10.57;;
7817;SDS011;3954;52.624;9.212;2023-03-30T00:03:13;13.30;;;11.30;;
7817;SDS011;3954;52.624;9.212;2023-03-30T00:05:43;11.60;;;10.50;;
7817;SDS011;3954;52.624;9.212;2023-03-30T00:08:10;12.83;;;10.77;;
7817;SDS011;3954;52.624;9.212;2023-03-30T00:10:38;13.20;;;10.43;;
7817;SDS011;3954;52.624;9.212;2023-03-30T00:13:05;12.43;;;10.13;;
7817;SDS011;3954;52.624;9.212;2023-03-30T00:15:32;11.00;;;9.87;;
7817;SDS011;3954;52.624;9.212;2023-03-30T00:17:59;12.43;;;10.10;;
7817;SDS011;3954;52.624;9.212;2023-03-30T00:20:25;12.13;;;10.00;;
7817;SDS011;3954;52.624;9.212;2023-03-30T00:22:51;12.20;;;10.87;;
7817;SDS011;3954;52.624;9.212;2023-03-30T00:25:18;11.70;;;9.57;;
7817;SDS011;3954;52.624;9.212;2023-03-30T00:27:44;11.17;;;10.00;;
7817;SDS011;3954;52.624;9.212;2023-03-30T00:30:11;11.63;;;9.83;;
7817;SDS011;3954;52.624;9.212;2023-03-30T00:32:37;11.40;;;9.57;;
7817;SDS011;3954;52.624;9.212;2023-03-30T00:35:05;12.37;;;10.30;;
7817;SDS011;3954;52.624;9.212;2023-03-30T00:37:31;12.07;;;9.67;;
7817;SDS011;3954;52.624;9.212;2023-03-30T00:40:01;11.43;;;9.53;;
7817;SDS011;3954;52.624;9.212;2023-03-30T00:42:28;12.10;;;9.80;;
7817;SDS011;3954;52.624;9.212;2023-03-30T00:47:46;11.90;;;10.70;;
7817;SDS011;3954;52.624;9.212;2023-03-30T00:50:16;12.53;;;10.07;;
7817;SDS011;3954;52.624;9.212;2023-03-30T00:52:46;11.40;;;10.30;;
7817;SDS011;3954;52.624;9.212;2023-03-30T00:55:12;12.03;;;10.07;;
7817;SDS011;3954;52.624;9.212;2023-03-30T00:57:39;13.07;;;10.10;;
7817;SDS011;3954;52.624;9.212;2023-03-30T01:00:07;11.63;;;10.40;;
7817;SDS011;3954;52.624;9.212;2023-03-30T01:02:36;11.20;;;9.77;;
7817;SDS011;3954;52.624;9.212;2023-03-30T01:05:04;12.13;;;9.40;;
7817;SDS011;3954;52.624;9.212;2023-03-30T01:07:32;12.23;;;9.03;;
7817;SDS011;3954;52.624;9.212;2023-03-30T01:09:58;11.40;;;9.17;;
7817;SDS011;3954;52.624;9.212;2023-03-30T01:12:24;10.23;;;9.20;;
7817;SDS011;3954;52.624;9.212;2023-03-30T01:14:50;10.57;;;9.10;;
7817;SDS011;3954;52.624;9.212;2023-03-30T01:17:18;10.40;;;9.30;;
7817;SDS011;3954;52.624;9.212;2023-03-30T01:19:59;12.70;;;9.57;;
7817;SDS011;3954;52.624;9.212;2023-03-30T01:22:44;10.60;;;8.83;;
7817;SDS011;3954;52.624;9.212;2023-03-30T01:25:33;9.77;;;8.73;;
7817;SDS011;3954;52.624;9.212;2023-03-30T01:28:17;9.40;;;8.40;;
7817;SDS011;3954;52.624;9.212;2023-03-30T01:31:09;9.80;;;8.47;;
7817;SDS011;3954;52.624;9.212;2023-03-30T01:33:46;10.13;;;8.70;;
7817;SDS011;3954;52.624;9.212;2023-03-30T01:36:20;9.53;;;8.43;;
7817;SDS011;3954;52.624;9.212;2023-03-30T01:39:01;9.73;;;8.70;;
7817;SDS011;3954;52.624;9.212;2023-03-30T01:41:32;8.93;;;8.03;;
7817;SDS011;3954;52.624;9.212;2023-03-30T01:43:59;9.27;;;8.37;;
7817;SDS011;3954;52.624;9.212;2023-03-30T01:46:28;9.07;;;8.17;;
7817;SDS011;3954;52.624;9.212;2023-03-30T01:48:57;9.03;;;8.07;;
7817;SDS011;3954;52.624;9.212;2023-03-30T01:51:25;9.70;;;7.60;;
7817;SDS011;3954;52.624;9.212;2023-03-30T01:53:53;8.77;;;7.93;;
7817;SDS011;3954;52.624;9.212;2023-03-30T01:56:24;8.80;;;7.90;;
7817;SDS011;3954;52.624;9.212;2023-03-30T01:58:52;11.97;;;7.90;;
7817;SDS011;3954;52.624;9.212;2023-03-30T02:01:20;8.80;;;7.53;;
7817;SDS011;3954;52.624;9.212;2023-03-30T02:03:47;10.53;;;8.17;;
7817;SDS011;3954;52.624;9.212;2023-03-30T02:06:19;9.03;;;7.10;;
7817;SDS011;3954;52.624;9.212;2023-03-30T02:08:48;7.63;;;6.83;;
7817;SDS011;3954;52.624;9.212;2023-03-30T02:11:14;7.43;;;6.50;;
7817;SDS011;3954;52.624;9.212;2023-03-30T02:13:42;9.53;;;7.40;;
7817;SDS011;3954;52.624;9.212;2023-03-30T02:16:11;10.67;;;6.73;;
7817;SDS011;3954;52.624;9.212;2023-03-30T02:18:39;6.53;;;5.93;;
7817;SDS011;3954;52.624;9.212;2023-03-30T02:21:05;10.23;;;7.00;;
7817;SDS011;3954;52.624;9.212;2023-03-30T02:23:33;7.93;;;6.67;;
7817;SDS011;3954;52.624;9.212;2023-03-30T02:26:00;7.13;;;5.97;;
7817;SDS011;3954;52.624;9.212;2023-03-30T02:28:26;7.03;;;6.33;;
7817;SDS011;3954;52.624;9.212;2023-03-30T02:30:54;7.13;;;6.43;;
7817;SDS011;3954;52.624;9.212;2023-03-30T02:36:45;10.30;;;6.17;;
7817;SDS011;3954;52.624;9.212;2023-03-30T02:39:20;6.90;;;5.90;;
7817;SDS011;3954;52.624;9.212;2023-03-30T02:41:53;8.90;;;5.97;;
7817;SDS011;3954;52.624;9.212;2023-03-30T02:44:26;7.50;;;6.07;;
7817;SDS011;3954;52.624;9.212;2023-03-30T02:47:01;6.43;;;5.73;;
7817;SDS011;3954;52.624;9.212;2023-03-30T02:49:32;6.67;;;5.37;;
7817;SDS011;3954;52.624;9.212;2023-03-30T02:52:03;5.70;;;5.10;;
7817;SDS011;3954;52.624;9.212;2023-03-30T02:54:34;7.77;;;5.50;;
7817;SDS011;3954;52.624;9.212;2023-03-30T02:57:06;7.37;;;5.30;;
7817;SDS011;3954;52.624;9.212;2023-03-30T02:59:36;6.60;;;4.90;;
7817;SDS011;3954;52.624;9.212;2023-03-30T03:02:08;6.63;;;5.20;;
7817;SDS011;3954;52.624;9.212;2023-03-30T03:04:35;6.23;;;5.00;;
7817;SDS011;3954;52.624;9.212;2023-03-30T03:07:01;5.77;;;5.10;;
7817;SDS011;3954;52.624;9.212;2023-03-30T03:09:27;8.33;;;5.30;;
7817;SDS011;3954;52.624;9.212;2023-03-30T03:11:54;6.20;;;4.80;;
7817;SDS011;3954;52.624;9.212;2023-03-30T03:14:20;6.23;;;4.40;;
7817;SDS011;3954;52.624;9.212;2023-03-30T03:16:46;5.30;;;4.37;;
7817;SDS011;3954;52.624;9.212;2023-03-30T03:19:13;6.63;;;4.57;;
7817;SDS011;3954;52.624;9.212;2023-03-30T03:21:40;5.40;;;4.20;;
7817;SDS011;3954;52.624;9.212;2023-03-30T03:24:06;6.27;;;3.67;;
7817;SDS011;3954;52.624;9.212;2023-03-30T03:26:32;7.73;;;3.93;;
7817;SDS011;3954;52.624;9.212;2023-03-30T03:28:58;6.37;;;3.97;;
7817;SDS011;3954;52.624;9.212;2023-03-30T03:31:24;6.90;;;3.50;;
7817;SDS011;3954;52.624;9.212;2023-03-30T03:33:51;5.17;;;3.60;;
7817;SDS011;3954;52.624;9.212;2023-03-30T03:36:18;6.03;;;3.70;;
7817;SDS011;3954;52.624;9.212;2023-03-30T03:38:44;5.97;;;3.80;;
7817;SDS011;3954;52.624;9.212;2023-03-30T03:41:12;6.30;;;4.10;;
7817;SDS011;3954;52.624;9.212;2023-03-30T03:43:38;4.77;;;3.60;;
7817;SDS011;3954;52.624;9.212;2023-03-30T03:46:04;7.43;;;3.93;;
7817;SDS011;3954;52.624;9.212;2023-03-30T03:48:30;7.77;;;3.70;;
7817;SDS011;3954;52.624;9.212;2023-03-30T03:50:56;6.43;;;3.63;;
7817;SDS011;3954;52.624;9.212;2023-03-30T03:53:25;7.00;;;3.60;;
7817;SDS011;3954;52.624;9.212;2023-03-30T03:55:51;4.70;;;3.20;;
7817;SDS011;3954;52.624;9.212;2023-03-30T03:58:18;4.97;;;3.53;;
7817;SDS011;3954;52.624;9.212;2023-03-30T04:00:45;5.87;;;3.87;;
7817;SDS011;3954;52.624;9.212;2023-03-30T04:03:11;6.37;;;4.13;;
7817;SDS011;3954;52.624;9.212;2023-03-30T04:05:37;6.47;;;3.90;;
7817;SDS011;3954;52.624;9.212;2023-03-30T04:08:04;7.13;;;3.70;;
7817;SDS011;3954;52.624;9.212;2023-03-30T04:10:31;5.83;;;3.70;;
7817;SDS011;3954;52.624;9.212;2023-03-30T04:12:57;5.63;;;3.33;;
7817;SDS011;3954;52.624;9.212;2023-03-30T04:15:23;4.93;;;3.20;;
7817;SDS011;3954;52.624;9.212;2023-03-30T04:17:49;5.63;;;3.40;;
7817;SDS011;3954;52.624;9.212;2023-03-30T04:20:21;6.60;;;4.00;;
7817;SDS011;3954;52.624;9.212;2023-03-30T04:22:48;4.57;;;3.03;;
7817;SDS011;3954;52.624;9.212;2023-03-30T04:25:14;5.50;;;3.47;;
7817;SDS011;3954;52.624;9.212;2023-03-30T04:27:41;5.87;;;3.50;;
7817;SDS011;3954;52.624;9.212;2023-03-30T04:30:07;5.17;;;3.10;;
7817;SDS011;3954;52.624;9.212;2023-03-30T04:32:34;6.07;;;3.80;;
7817;SDS011;3954;52.624;9.212;2023-03-30T04:35:02;6.07;;;3.63;;
7817;SDS011;3954;52.624;9.212;2023-03-30T04:37:29;3.07;;;2.73;;
7817;SDS011;3954;52.624;9.212;2023-03-30T04:39:55;4.23;;;3.40;;
7817;SDS011;3954;52.624;9.212;2023-03-30T04:42:21;13.67;;;4.87;;
7817;SDS011;3954;52.624;9.212;2023-03-30T04:44:55;5.83;;;3.80;;
7817;SDS011;3954;52.624;9.212;2023-03-30T04:47:21;7.93;;;3.50;;
7817;SDS011;3954;52.624;9.212;2023-03-30T04:49:47;7.87;;;3.17;;
7817;SDS011;3954;52.624;9.212;2023-03-30T04:52:13;8.90;;;3.70;;
7817;SDS011;3954;52.624;9.212;2023-03-30T04:54:40;6.73;;;3.43;;
7817;SDS011;3954;52.624;9.212;2023-03-30T04:57:06;4.80;;;3.50;;
7817;SDS011;3954;52.624;9.212;2023-03-30T04:59:31;6.57;;;3.43;;
7817;SDS011;3954;52.624;9.212;2023-03-30T05:01:59;6.77;;;3.50;;
7817;SDS011;3954;52.624;9.212;2023-03-30T05:04:25;5.30;;;3.03;;
7817;SDS011;3954;52.624;9.212;2023-03-30T05:06:51;5.57;;;3.13;;
7817;SDS011;3954;52.624;9.212;2023-03-30T05:09:17;8.17;;;3.63;;
7817;SDS011;3954;52.624;9.212;2023-03-30T05:11:43;6.37;;;3.63;;
7817;SDS011;3954;52.624;9.212;2023-03-30T05:14:09;6.97;;;3.83;;
7817;SDS011;3954;52.624;9.212;2023-03-30T05:16:35;3.77;;;3.20;;
7817;SDS011;3954;52.624;9.212;2023-03-30T05:19:02;8.70;;;4.30;;
7817;SDS011;3954;52.624;9.212;2023-03-30T05:21:28;6.57;;;3.77;;
7817;SDS011;3954;52.624;9.212;2023-03-30T05:23:55;6.50;;;3.97;;
7817;SDS011;3954;52.624;9.212;2023-03-30T05:26:21;7.77;;;4.60;;
7817;SDS011;3954;52.624;9.212;2023-03-30T05:28:47;8.20;;;4.43;;
7817;SDS011;3954;52.624;9.212;2023-03-30T05:31:13;13.37;;;7.73;;
7817;SDS011;3954;52.624;9.212;2023-03-30T05:33:39;6.30;;;4.80;;
7817;SDS011;3954;52.624;9.212;2023-03-30T05:36:07;8.67;;;4.90;;
7817;SDS011;3954;52.624;9.212;2023-03-30T05:38:33;6.93;;;4.83;;
7817;SDS011;3954;52.624;9.212;2023-03-30T05:41:00;7.17;;;4.60;;
7817;SDS011;3954;52.624;9.212;2023-03-30T05:43:26;8.43;;;5.20;;
7817;SDS011;3954;52.624;9.212;2023-03-30T05:45:52;7.47;;;5.17;;
7817;SDS011;3954;52.624;9.212;2023-03-30T05:48:18;8.83;;;5.27;;
7817;SDS011;3954;52.624;9.212;2023-03-30T05:50:45;9.77;;;5.60;;
7817;SDS011;3954;52.624;9.212;2023-03-30T05:53:13;6.57;;;4.47;;
7817;SDS011;3954;52.624;9.212;2023-03-30T05:55:41;6.47;;;4.77;;
7817;SDS011;3954;52.624;9.212;2023-03-30T05:58:07;7.47;;;5.07;;
7817;SDS011;3954;52.624;9.212;2023-03-30T06:00:33;7.50;;;5.07;;
7817;SDS011;3954;52.624;9.212;2023-03-30T06:03:01;7.03;;;5.00;;
7817;SDS011;3954;52.624;9.212;2023-03-30T06:05:28;6.60;;;4.80;;
7817;SDS011;3954;52.624;9.212;2023-03-30T06:07:54;6.10;;;4.67;;
7817;SDS011;3954;52.624;9.212;2023-03-30T06:10:22;7.27;;;4.80;;
7817;SDS011;3954;52.624;9.212;2023-03-30T06:12:48;8.87;;;4.47;;
7817;SDS011;3954;52.624;9.212;2023-03-30T06:15:14;6.93;;;4.67;;
7817;SDS011;3954;52.624;9.212;2023-03-30T06:17:40;8.87;;;4.13;;
7817;SDS011;3954;52.624;9.212;2023-03-30T06:20:07;6.40;;;4.23;;
7817;SDS011;3954;52.624;9.212;2023-03-30T06:22:36;6.60;;;4.40;;
7817;SDS011;3954;52.624;9.212;2023-03-30T06:25:02;5.70;;;4.13;;
7817;SDS011;3954;52.624;9.212;2023-03-30T06:27:30;7.70;;;4.70;;
7817;SDS011;3954;52.624;9.212;2023-03-30T06:29:56;8.00;;;4.67;;
7817;SDS011;3954;52.624;9.212;2023-03-30T06:32:22;7.33;;;5.00;;
7817;SDS011;3954;52.624;9.212;2023-03-30T06:34:49;6.33;;;5.13;;
7817;SDS011;3954;52.624;9.212;2023-03-30T06:37:17;6.57;;;4.80;;
7817;SDS011;3954;52.624;9.212;2023-03-30T06:39:43;7.43;;;4.63;;
7817;SDS011;3954;52.624;9.212;2023-03-30T06:42:09;8.80;;;4.77;;
7817;SDS011;3954;52.624;9.212;2023-03-30T06:44:37;10.77;;;4.90;;
7817;SDS011;3954;52.624;9.212;2023-03-30T06:47:03;6.00;;;4.30;;
7817;SDS011;3954;52.624;9.212;2023-03-30T06:49:30;6.43;;;4.20;;
7817;SDS011;3954;52.624;9.212;2023-03-30T06:51:56;6.40;;;4.20;;
7817;SDS011;3954;52.624;9.212;2023-03-30T06:54:22;7.33;;;4.57;;
7817;SDS011;3954;52.624;9.212;2023-03-30T06:56:48;8.43;;;4.10;;
7817;SDS011;3954;52.624;9.212;2023-03-30T06:59:14;6.70;;;4.03;;
7817;SDS011;3954;52.624;9.212;2023-03-30T07:01:42;11.43;;;3.80;;
7817;SDS011;3954;52.624;9.212;2023-03-30T07:04:08;7.13;;;3.97;;
7817;SDS011;3954;52.624;9.212;2023-03-30T07:06:34;8.70;;;4.10;;
7817;SDS011;3954;52.624;9.212;2023-03-30T07:09:01;8.23;;;3.90;;
7817;SDS011;3954;52.624;9.212;2023-03-30T07:11:29;6.50;;;3.93;;
7817;SDS011;3954;52.624;9.212;2023-03-30T07:13:55;5.43;;;3.70;;
7817;SDS011;3954;52.624;9.212;2023-03-30T07:16:22;5.50;;;3.50;;
7817;SDS011;3954;52.624;9.212;2023-03-30T07:18:49;9.47;;;3.37;;
7817;SDS011;3954;52.624;9.212;2023-03-30T07:21:16;6.23;;;3.87;;
7817;SDS011;3954;52.624;9.212;2023-03-30T07:23:42;6.37;;;3.37;;
7817;SDS011;3954;52.624;9.212;2023-03-30T07:26:08;8.37;;;3.60;;
7817;SDS011;3954;52.624;9.212;2023-03-30T07:28:34;4.50;;;3.10;;
7817;SDS011;3954;52.624;9.212;2023-03-30T07:31:04;5.23;;;3.30;;
7817;SDS011;3954;52.624;9.212;2023-03-30T07:33:31;6.27;;;3.10;;
7817;SDS011;3954;52.624;9.212;2023-03-30T07:35:58;4.33;;;3.37;;
7817;SDS011;3954;52.624;9.212;2023-03-30T07:38:24;5.27;;;3.10;;
7817;SDS011;3954;52.624;9.212;2023-03-30T07:40:51;6.13;;;3.70;;
7817;SDS011;3954;52.624;9.212;2023-03-30T07:43:17;10.13;;;3.23;;
7817;SDS011;3954;52.624;9.212;2023-03-30T07:45:43;6.23;;;3.00;;
7817;SDS011;3954;52.624;9.212;2023-03-30T07:48:09;9.60;;;5.77;;
7817;SDS011;3954;52.624;9.212;2023-03-30T07:50:35;9.10;;;2.90;;
7817;SDS011;3954;52.624;9.212;2023-03-30T07:53:02;6.00;;;2.90;;
7817;SDS011;3954;52.624;9.212;2023-03-30T07:55:28;4.83;;;2.87;;
7817;SDS011;3954;52.624;9.212;2023-03-30T07:57:54;4.60;;;2.33;;
7817;SDS011;3954;52.624;9.212;2023-03-30T08:00:21;4.67;;;2.80;;
7817;SDS011;3954;52.624;9.212;2023-03-30T08:02:47;3.50;;;2.40;;
7817;SDS011;3954;52.624;9.212;2023-03-30T08:05:13;5.10;;;2.90;;
7817;SDS011;3954;52.624;9.212;2023-03-30T08:07:41;5.03;;;2.43;;
7817;SDS011;3954;52.624;9.212;2023-03-30T08:10:09;4.40;;;2.93;;
7817;SDS011;3954;52.624;9.212;2023-03-30T08:12:35;4.77;;;2.60;;
7817;SDS011;3954;52.624;9.212;2023-03-30T08:15:01;7.20;;;3.00;;
7817;SDS011;3954;52.624;9.212;2023-03-30T08:17:28;5.40;;;2.27;;
7817;SDS011;3954;52.624;9.212;2023-03-30T08:19:54;4.77;;;2.63;;
7817;SDS011;3954;52.624;9.212;2023-03-30T08:22:22;3.93;;;2.93;;
7817;SDS011;3954;52.624;9.212;2023-03-30T08:24:48;5.13;;;2.43;;
7817;SDS011;3954;52.624;9.212;2023-03-30T08:27:16;4.27;;;2.40;;
7817;SDS011;3954;52.624;9.212;2023-03-30T08:29:42;4.07;;;2.40;;
7817;SDS011;3954;52.624;9.212;2023-03-30T08:32:08;3.67;;;1.80;;
7817;SDS011;3954;52.624;9.212;2023-03-30T08:34:34;2.93;;;1.90;;
7817;SDS011;3954;52.624;9.212;2023-03-30T08:37:00;2.17;;;1.70;;
7817;SDS011;3954;52.624;9.212;2023-03-30T08:39:26;2.93;;;1.80;;
7817;SDS011;3954;52.624;9.212;2023-03-30T08:41:58;6.23;;;2.10;;
7817;SDS011;3954;52.624;9.212;2023-03-30T08:44:30;2.27;;;1.77;;
7817;SDS011;3954;52.624;9.212;2023-03-30T08:46:57;3.10;;;1.87;;
7817;SDS011;3954;52.624;9.212;2023-03-30T08:49:24;3.80;;;2.20;;
7817;SDS011;3954;52.624;9.212;2023-03-30T08:51:51;7.27;;;2.17;;
7817;SDS011;3954;52.624;9.212;2023-03-30T08:54:19;3.50;;;2.00;;
7817;SDS011;3954;52.624;9.212;2023-03-30T08:56:47;3.47;;;1.97;;
7817;SDS011;3954;52.624;9.212;2023-03-30T08:59:18;2.70;;;2.00;;
7817;SDS011;3954;52.624;9.212;2023-03-30T09:01:48;3.73;;;1.87;;
7817;SDS011;3954;52.624;9.212;2023-03-30T09:04:19;4.40;;;2.23;;
7817;SDS011;3954;52.624;9.212;2023-03-30T09:06:50;5.50;;;2.10;;
7817;SDS011;3954;52.624;9.212;2023-03-30T09:09:18;3.20;;;1.90;;
7817;SDS011;3954;52.624;9.212;2023-03-30T09:11:45;2.90;;;1.93;;
7817;SDS011;3954;52.624;9.212;2023-03-30T09:14:13;4.93;;;2.07;;
7817;SDS011;3954;52.624;9.212;2023-03-30T09:16:41;5.50;;;2.20;;
7817;SDS011;3954;52.624;9.212;2023-03-30T09:19:11;4.13;;;2.10;;
7817;SDS011;3954;52.624;9.212;2023-03-30T09:21:39;3.37;;;1.80;;
7817;SDS011;3954;52.624;9.212;2023-03-30T09:24:09;4.13;;;2.70;;
7817;SDS011;3954;52.624;9.212;2023-03-30T09:26:39;4.43;;;2.57;;
7817;SDS011;3954;52.624;9.212;2023-03-30T09:29:08;3.57;;;2.40;;
7817;SDS011;3954;52.624;9.212;2023-03-30T09:31:38;5.20;;;2.20;;
7817;SDS011;3954;52.624;9.212;2023-03-30T09:34:05;2.40;;;2.20;;
7817;SDS011;3954;52.624;9.212;2023-03-30T09:36:38;4.00;;;2.40;;
7817;SDS011;3954;52.624;9.212;2023-03-30T09:39:08;5.83;;;2.50;;
7817;SDS011;3954;52.624;9.212;2023-03-30T09:41:40;4.37;;;2.20;;
7817;SDS011;3954;52.624;9.212;2023-03-30T09:44:08;3.30;;;2.30;;
7817;SDS011;3954;52.624;9.212;2023-03-30T09:46:38;5.30;;;2.30;;
7817;SDS011;3954;52.624;9.212;2023-03-30T09:49:11;4.10;;;2.33;;
7817;SDS011;3954;52.624;9.212;2023-03-30T09:51:39;5.87;;;2.37;;
7817;SDS011;3954;52.624;9.212;2023-03-30T09:54:16;5.57;;;2.83;;
7817;SDS011;3954;52.624;9.212;2023-03-30T09:56:43;4.70;;;2.00;;
7817;SDS011;3954;52.624;9.212;2023-03-30T09:59:18;5.83;;;2.30;;
7817;SDS011;3954;52.624;9.212;2023-03-30T10:01:46;6.50;;;2.30;;
7817;SDS011;3954;52.624;9.212;2023-03-30T10:04:11;4.17;;;2.13;;
7817;SDS011;3954;52.624;9.212;2023-03-30T10:06:44;2.93;;;2.10;;
7817;SDS011;3954;52.624;9.212;2023-03-30T10:09:11;3.27;;;2.23;;
7817;SDS011;3954;52.624;9.212;2023-03-30T10:11:39;4.40;;;2.20;;
7817;SDS011;3954;52.624;9.212;2023-03-30T10:14:05;4.63;;;2.60;;
7817;SDS011;3954;52.624;9.212;2023-03-30T10:16:36;3.30;;;2.20;;
7817;SDS011;3954;52.624;9.212;2023-03-30T10:19:02;4.97;;;2.13;;
7817;SDS011;3954;52.624;9.212;2023-03-30T10:21:30;5.93;;;2.63;;
7817;SDS011;3954;52.624;9.212;2023-03-30T10:24:02;7.60;;;4.90;;
7817;SDS011;3954;52.624;9.212;2023-03-30T10:26:29;5.83;;;2.57;;
7817;SDS011;3954;52.624;9.212;2023-03-30T10:28:56;6.37;;;2.00;;
7817;SDS011;3954;52.624;9.212;2023-03-30T10:31:25;5.00;;;2.10;;
7817;SDS011;3954;52.624;9.212;2023-03-30T10:33:53;5.73;;;2.53;;
7817;SDS011;3954;52.624;9.212;2023-03-30T10:36:20;3.47;;;2.00;;
7817;SDS011;3954;52.624;9.212;2023-03-30T10:38:46;3.90;;;2.17;;
7817;SDS011;3954;52.624;9.212;2023-03-30T10:41:14;4.17;;;2.10;;
7817;SDS011;3954;52.624;9.212;2023-03-30T10:43:41;2.93;;;2.00;;
7817;SDS011;3954;52.624;9.212;2023-03-30T10:46:09;3.30;;;1.80;;
7817;SDS011;3954;52.624;9.212;2023-03-30T10:48:40;4.63;;;1.90;;
7817;SDS011;3954;52.624;9.212;2023-03-30T10:51:12;3.20;;;1.80;;
7817;SDS011;3954;52.624;9.212;2023-03-30T10:53:43;4.43;;;1.97;;
7817;SDS011;3954;52.624;9.212;2023-03-30T10:56:18;6.07;;;2.10;;
7817;SDS011;3954;52.624;9.212;2023-03-30T10:58:49;3.77;;;1.93;;
7817;SDS011;3954;52.624;9.212;2023-03-30T11:01:19;2.77;;;1.90;;
7817;SDS011;3954;52.624;9.212;2023-03-30T11:03:48;5.73;;;2.17;;
7817;SDS011;3954;52.624;9.212;2023-03-30T11:06:18;5.63;;;2.20;;
7817;SDS011;3954;52.624;9.212;2023-03-30T11:08:47;3.77;;;2.03;;
7817;SDS011;3954;52.624;9.212;2023-03-30T11:11:17;5.03;;;2.20;;
7817;SDS011;3954;52.624;9.212;2023-03-30T11:13:46;5.63;;;2.60;;
7817;SDS011;3954;52.624;9.212;2023-03-30T11:16:14;4.00;;;2.30;;
7817;SDS011;3954;52.624;9.212;2023-03-30T11:18:42;4.93;;;2.40;;
7817;SDS011;3954;52.624;9.212;2023-03-30T11:21:10;4.23;;;2.10;;
7817;SDS011;3954;52.624;9.212;2023-03-30T11:23:38;5.53;;;2.30;;
7817;SDS011;3954;52.624;9.212;2023-03-30T11:26:06;4.33;;;2.20;;
7817;SDS011;3954;52.624;9.212;2023-03-30T11:28:42;4.07;;;1.93;;
7817;SDS011;3954;52.624;9.212;2023-03-30T11:31:13;3.73;;;2.00;;
7817;SDS011;3954;52.624;9.212;2023-03-30T11:33:42;4.83;;;1.93;;
7817;SDS011;3954;52.624;9.212;2023-03-30T11:36:10;4.00;;;2.03;;
7817;SDS011;3954;52.624;9.212;2023-03-30T11:38:43;5.27;;;2.50;;
7817;SDS011;3954;52.624;9.212;2023-03-30T11:41:11;6.33;;;2.20;;
7817;SDS011;3954;52.624;9.212;2023-03-30T11:43:38;7.70;;;2.97;;
7817;SDS011;3954;52.624;9.212;2023-03-30T11:46:06;5.47;;;2.60;;
7817;SDS011;3954;52.624;9.212;2023-03-30T11:48:47;5.77;;;2.10;;
7817;SDS011;3954;52.624;9.212;2023-03-30T11:51:21;5.20;;;2.00;;
7817;SDS011;3954;52.624;9.212;2023-03-30T11:53:51;3.17;;;1.80;;
7817;SDS011;3954;52.624;9.212;2023-03-30T11:56:20;8.77;;;2.13;;
7817;SDS011;3954;52.624;9.212;2023-03-30T11:58:54;3.07;;;1.93;;
7817;SDS011;3954;52.624;9.212;2023-03-30T12:01:31;6.43;;;2.33;;
7817;SDS011;3954;52.624;9.212;2023-03-30T12:04:02;7.40;;;2.17;;
7817;SDS011;3954;52.624;9.212;2023-03-30T12:06:30;5.97;;;2.13;;
7817;SDS011;3954;52.624;9.212;2023-03-30T12:09:12;4.67;;;1.93;;
7817;SDS011;3954;52.624;9.212;2023-03-30T12:11:44;7.53;;;2.07;;
7817;SDS011;3954;52.624;9.212;2023-03-30T12:14:16;5.73;;;1.93;;
7817;SDS011;3954;52.624;9.212;2023-03-30T12:16:48;6.60;;;1.90;;
7817;SDS011;3954;52.624;9.212;2023-03-30T12:19:17;4.37;;;2.00;;
7817;SDS011;3954;52.624;9.212;2023-03-30T12:21:49;4.13;;;1.93;;
7817;SDS011;3954;52.624;9.212;2023-03-30T12:24:17;5.37;;;2.20;;
7817;SDS011;3954;52.624;9.212;2023-03-30T12:26:46;6.40;;;1.97;;
7817;SDS011;3954;52.624;9.212;2023-03-30T12:29:13;4.97;;;2.20;;
7817;SDS011;3954;52.624;9.212;2023-03-30T12:34:26;3.83;;;1.80;;
7817;SDS011;3954;52.624;9.212;2023-03-30T12:36:53;4.03;;;2.00;;
7817;SDS011;3954;52.624;9.212;2023-03-30T12:39:20;6.33;;;2.23;;
7817;SDS011;3954;52.624;9.212;2023-03-30T12:41:53;5.53;;;2.30;;
7817;SDS011;3954;52.624;9.212;2023-03-30T12:44:33;6.47;;;2.20;;
7817;SDS011;3954;52.624;9.212;2023-03-30T12:49:52;6.67;;;2.53;;
7817;SDS011;3954;52.624;9.212;2023-03-30T12:52:24;4.50;;;2.40;;
7817;SDS011;3954;52.624;9.212;2023-03-30T12:54:53;7.53;;;2.77;;
7817;SDS011;3954;52.624;9.212;2023-03-30T12:57:26;6.33;;;2.30;;
7817;SDS011;3954;52.624;9.212;2023-03-30T13:00:00;5.10;;;1.67;;
7817;SDS011;3954;52.624;9.212;2023-03-30T13:02:37;4.47;;;2.10;;
7817;SDS011;3954;52.624;9.212;2023-03-30T13:05:16;5.63;;;2.00;;
7817;SDS011;3954;52.624;9.212;2023-03-30T13:07:43;4.03;;;1.80;;
7817;SDS011;3954;52.624;9.212;2023-03-30T13:12:50;5.07;;;2.07;;
7817;SDS011;3954;52.624;9.212;2023-03-30T13:15:31;5.53;;;2.10;;
7817;SDS011;3954;52.624;9.212;2023-03-30T13:17:58;5.37;;;2.00;;
7817;SDS011;3954;52.624;9.212;2023-03-30T13:20:30;10.03;;;2.37;;
7817;SDS011;3954;52.624;9.212;2023-03-30T13:25:42;4.43;;;2.30;;
7817;SDS011;3954;52.624;9.212;2023-03-30T13:30:56;6.13;;;2.33;;
7817;SDS011;3954;52.624;9.212;2023-03-30T13:33:24;4.90;;;2.10;;
7817;SDS011;3954;52.624;9.212;2023-03-30T13:35:56;7.20;;;2.20;;
7817;SDS011;3954;52.624;9.212;2023-03-30T13:38:28;5.93;;;2.10;;
7817;SDS011;3954;52.624;9.212;2023-03-30T13:40:56;5.40;;;2.47;;
7817;SDS011;3954;52.624;9.212;2023-03-30T13:43:28;7.40;;;2.33;;
7817;SDS011;3954;52.624;9.212;2023-03-30T13:45:58;4.37;;;1.93;;
7817;SDS011;3954;52.624;9.212;2023-03-30T13:48:30;6.97;;;2.53;;
7817;SDS011;3954;52.624;9.212;2023-03-30T13:51:00;4.73;;;2.17;;
7817;SDS011;3954;52.624;9.212;2023-03-30T13:53:27;7.30;;;2.23;;
7817;SDS011;3954;52.624;9.212;2023-03-30T13:55:55;4.80;;;2.33;;
7817;SDS011;3954;52.624;9.212;2023-03-30T13:58:22;8.00;;;2.63;;
7817;SDS011;3954;52.624;9.212;2023-03-30T14:00:51;5.77;;;2.33;;
7817;SDS011;3954;52.624;9.212;2023-03-30T14:03:25;6.07;;;2.50;;
7817;SDS011;3954;52.624;9.212;2023-03-30T14:05:51;6.60;;;2.60;;
7817;SDS011;3954;52.624;9.212;2023-03-30T14:08:19;7.90;;;2.70;;
7817;SDS011;3954;52.624;9.212;2023-03-30T14:10:45;6.63;;;2.60;;
7817;SDS011;3954;52.624;9.212;2023-03-30T14:13:12;6.37;;;2.97;;
7817;SDS011;3954;52.624;9.212;2023-03-30T14:15:39;8.07;;;2.17;;
7817;SDS011;3954;52.624;9.212;2023-03-30T14:18:08;6.57;;;2.50;;
7817;SDS011;3954;52.624;9.212;2023-03-30T14:20:40;5.67;;;2.10;;
7817;SDS011;3954;52.624;9.212;2023-03-30T14:23:10;6.10;;;2.73;;
7817;SDS011;3954;52.624;9.212;2023-03-30T14:25:40;8.07;;;2.50;;
7817;SDS011;3954;52.624;9.212;2023-03-30T14:28:06;5.50;;;2.30;;
7817;SDS011;3954;52.624;9.212;2023-03-30T14:30:35;5.00;;;2.30;;
7817;SDS011;3954;52.624;9.212;2023-03-30T14:33:05;7.07;;;2.10;;
7817;SDS011;3954;52.624;9.212;2023-03-30T14:35:31;8.07;;;2.50;;
7817;SDS011;3954;52.624;9.212;2023-03-30T14:37:58;7.53;;;2.70;;
7817;SDS011;3954;52.624;9.212;2023-03-30T14:40:24;7.23;;;2.50;;
7817;SDS011;3954;52.624;9.212;2023-03-30T14:42:52;4.17;;;2.17;;
7817;SDS011;3954;52.624;9.212;2023-03-30T14:45:18;6.67;;;2.43;;
7817;SDS011;3954;52.624;9.212;2023-03-30T14:47:45;6.63;;;2.50;;
7817;SDS011;3954;52.624;9.212;2023-03-30T14:50:12;5.90;;;2.37;;
7817;SDS011;3954;52.624;9.212;2023-03-30T14:52:39;8.63;;;2.90;;
7817;SDS011;3954;52.624;9.212;2023-03-30T14:55:06;8.23;;;2.67;;
7817;SDS011;3954;52.624;9.212;2023-03-30T14:57:33;7.83;;;2.53;;
7817;SDS011;3954;52.624;9.212;2023-03-30T15:00:04;7.70;;;2.53;;
7817;SDS011;3954;52.624;9.212;2023-03-30T15:02:44;8.93;;;2.60;;
7817;SDS011;3954;52.624;9.212;2023-03-30T15:05:13;7.03;;;2.73;;
7817;SDS011;3954;52.624;9.212;2023-03-30T15:32:52;5.63;;;2.37;;
7817;SDS011;3954;52.624;9.212;2023-03-30T15:38:29;7.53;;;2.40;;
7817;SDS011;3954;52.624;9.212;2023-03-30T15:40:55;5.80;;;2.20;;
7817;SDS011;3954;52.624;9.212;2023-03-30T15:43:23;7.17;;;2.20;;
7817;SDS011;3954;52.624;9.212;2023-03-30T15:45:50;6.30;;;2.50;;
7817;SDS011;3954;52.624;9.212;2023-03-30T15:48:19;7.03;;;2.37;;
7817;SDS011;3954;52.624;9.212;2023-03-30T15:50:47;7.63;;;2.50;;
7817;SDS011;3954;52.624;9.212;2023-03-30T15:53:16;7.80;;;2.80;;
7817;SDS011;3954;52.624;9.212;2023-03-30T15:55:43;6.73;;;2.70;;
7817;SDS011;3954;52.624;9.212;2023-03-30T15:58:14;5.03;;;2.13;;
7817;SDS011;3954;52.624;9.212;2023-03-30T16:00:43;6.83;;;2.30;;
7817;SDS011;3954;52.624;9.212;2023-03-30T16:03:10;5.37;;;2.40;;
7817;SDS011;3954;52.624;9.212;2023-03-30T16:05:38;5.23;;;2.33;;
7817;SDS011;3954;52.624;9.212;2023-03-30T16:08:07;9.00;;;2.47;;